createdAt,value
2017-09-23T00:00:46.924Z,9.03
2017-09-23T00:03:15.225Z,9.37
2017-09-23T00:05:43.575Z,9.70
2017-09-23T00:08:11.868Z,9.90
2017-09-23T00:10:40.929Z,10.80
2017-09-23T00:13:09.386Z,9.53
2017-09-23T00:15:38.476Z,9.20
2017-09-23T00:18:06.784Z,9.23
2017-09-23T00:20:35.114Z,10.43
2017-09-23T00:23:03.412Z,11.57
2017-09-23T00:25:32.508Z,10.20
2017-09-23T00:28:00.802Z,9.73
2017-09-23T00:30:29.148Z,9.40
2017-09-23T00:32:57.452Z,9.50
2017-09-23T00:35:25.796Z,9.70
2017-09-23T00:37:54.095Z,10.73
2017-09-23T00:40:22.394Z,12.43
2017-09-23T00:42:50.721Z,11.40
2017-09-23T00:45:19.030Z,10.83
2017-09-23T00:47:47.359Z,10.97
2017-09-23T00:50:16.420Z,8.87
2017-09-23T00:52:44.753Z,11.10
2017-09-23T00:55:13.067Z,10.40
2017-09-23T00:57:41.392Z,11.07
2017-09-23T01:00:09.725Z,10.50
2017-09-23T01:02:38.054Z,10.70
2017-09-23T01:05:06.399Z,11.47
2017-09-23T01:07:35.479Z,9.97
2017-09-23T01:10:04.561Z,10.40
2017-09-23T01:12:32.885Z,11.10
2017-09-23T01:15:01.193Z,11.33
2017-09-23T01:17:29.519Z,11.50
2017-09-23T01:19:57.855Z,11.23
2017-09-23T01:22:26.968Z,11.27
2017-09-23T01:24:56.033Z,12.37
2017-09-23T01:27:24.417Z,10.80
2017-09-23T01:29:52.741Z,11.50
2017-09-23T01:32:21.075Z,11.50
2017-09-23T01:34:49.405Z,11.37
2017-09-23T01:37:18.486Z,9.53
2017-09-23T01:39:46.798Z,9.40
2017-09-23T01:42:15.119Z,9.27
2017-09-23T01:44:43.415Z,9.20
2017-09-23T01:47:11.756Z,8.93
2017-09-23T01:49:40.124Z,9.80
2017-09-23T01:52:08.421Z,8.80
2017-09-23T01:54:36.758Z,8.67
2017-09-23T01:57:05.832Z,9.57
2017-09-23T01:59:34.122Z,9.20
2017-09-23T02:02:02.437Z,8.77
2017-09-23T02:04:30.743Z,8.33
2017-09-23T02:06:59.068Z,9.80
2017-09-23T02:09:27.558Z,9.00
2017-09-23T02:11:55.851Z,9.33
2017-09-23T02:14:24.178Z,9.60
2017-09-23T02:16:52.491Z,9.47
2017-09-23T02:19:20.814Z,9.40
2017-09-23T02:21:49.901Z,9.43
2017-09-23T02:24:18.197Z,9.90
2017-09-23T02:26:46.532Z,9.20
2017-09-23T02:29:14.845Z,10.43
2017-09-23T02:31:43.904Z,9.17
2017-09-23T02:34:12.242Z,10.47
2017-09-23T02:36:40.543Z,11.17
2017-09-23T02:39:08.880Z,11.03
2017-09-23T02:41:37.992Z,10.73
2017-09-23T02:44:07.058Z,10.30
2017-09-23T02:46:35.357Z,9.30
2017-09-23T02:49:03.690Z,10.63
2017-09-23T02:51:31.994Z,10.30
2017-09-23T02:54:00.320Z,9.70
2017-09-23T02:56:29.400Z,10.27
2017-09-23T02:58:57.698Z,10.70
2017-09-23T03:01:26.032Z,10.20
2017-09-23T03:03:54.331Z,8.33
2017-09-23T03:06:22.661Z,9.27
2017-09-23T03:08:51.742Z,10.10
2017-09-23T03:11:20.062Z,10.07
2017-09-23T03:13:48.381Z,10.70
2017-09-23T03:16:17.445Z,12.10
2017-09-23T03:18:45.829Z,10.80
2017-09-23T03:21:14.154Z,10.17
2017-09-23T03:23:42.479Z,11.33
2017-09-23T03:26:10.776Z,11.07
2017-09-23T03:28:39.202Z,11.07
2017-09-23T03:31:07.565Z,10.03
2017-09-23T03:33:35.861Z,10.97
2017-09-23T03:36:04.193Z,10.50
2017-09-23T03:38:32.489Z,11.00
2017-09-23T03:41:00.791Z,11.17
2017-09-23T03:43:29.130Z,10.77
2017-09-23T03:45:57.437Z,11.20
2017-09-23T03:48:25.741Z,10.93
2017-09-23T03:50:54.076Z,9.80
2017-09-23T03:53:23.142Z,10.30
2017-09-23T03:55:51.438Z,10.17
2017-09-23T03:58:19.773Z,10.40
2017-09-23T04:00:48.857Z,10.97
2017-09-23T04:03:17.437Z,10.80
2017-09-23T04:05:45.774Z,11.23
2017-09-23T04:08:14.080Z,10.80
2017-09-23T04:10:42.381Z,11.03
2017-09-23T04:13:10.703Z,10.40
2017-09-23T04:15:39.175Z,12.17
2017-09-23T04:18:07.513Z,10.20
2017-09-23T04:20:35.814Z,9.37
2017-09-23T04:23:04.120Z,11.60
2017-09-23T04:25:32.492Z,8.87
2017-09-23T04:28:00.832Z,10.13
2017-09-23T04:30:29.133Z,10.23
2017-09-23T04:32:57.448Z,11.67
2017-09-23T04:35:25.774Z,10.70
2017-09-23T04:37:54.862Z,10.60
2017-09-23T04:40:23.224Z,10.03
2017-09-23T04:42:51.535Z,11.60
2017-09-23T04:45:19.868Z,11.00
2017-09-23T04:47:48.202Z,10.10
2017-09-23T04:50:17.334Z,10.93
2017-09-23T04:52:45.968Z,11.13
2017-09-23T04:55:14.266Z,10.33
2017-09-23T04:57:42.560Z,10.47
2017-09-23T05:00:10.961Z,11.00
2017-09-23T05:02:39.258Z,11.07
2017-09-23T05:05:07.588Z,10.83
2017-09-23T05:07:35.909Z,12.10
2017-09-23T05:10:04.214Z,9.80
2017-09-23T05:12:32.528Z,13.37
2017-09-23T05:15:01.619Z,11.20
2017-09-23T05:17:29.973Z,12.10
2017-09-23T05:19:59.083Z,11.70
2017-09-23T05:22:28.150Z,12.03
2017-09-23T05:24:56.487Z,13.90
2017-09-23T05:27:24.817Z,10.60
2017-09-23T05:29:53.898Z,11.97
2017-09-23T05:32:22.197Z,11.83
2017-09-23T05:34:50.531Z,12.30
2017-09-23T05:37:19.607Z,11.20
2017-09-23T05:39:47.909Z,12.53
2017-09-23T05:42:17.314Z,10.60
2017-09-23T05:44:45.735Z,10.23
2017-09-23T05:47:14.087Z,11.10
2017-09-23T05:49:43.153Z,9.17
2017-09-23T05:52:11.469Z,11.27
2017-09-23T05:54:39.831Z,10.50
2017-09-23T05:57:08.130Z,9.83
2017-09-23T05:59:37.222Z,10.87
2017-09-23T06:02:05.636Z,11.83
2017-09-23T06:04:34.734Z,11.97
2017-09-23T06:07:03.037Z,10.83
2017-09-23T06:09:31.365Z,11.43
2017-09-23T06:11:59.698Z,10.80
2017-09-23T06:14:28.038Z,12.00
2017-09-23T06:16:56.357Z,12.10
2017-09-23T06:19:24.651Z,10.50
2017-09-23T06:21:52.997Z,10.60
2017-09-23T06:24:22.074Z,9.77
2017-09-23T06:26:50.374Z,10.47
2017-09-23T06:29:18.699Z,10.13
2017-09-23T06:31:47.007Z,10.20
2017-09-23T06:34:16.104Z,10.57
2017-09-23T06:36:44.404Z,10.20
2017-09-23T06:39:12.733Z,9.93
2017-09-23T06:41:41.828Z,10.50
2017-09-23T06:44:10.130Z,11.60
2017-09-23T06:46:38.453Z,10.70
2017-09-23T06:49:06.774Z,11.40
2017-09-23T06:51:35.122Z,11.77
2017-09-23T06:54:03.462Z,12.00
2017-09-23T06:56:32.531Z,12.30
2017-09-23T06:59:00.853Z,12.93
2017-09-23T07:01:29.185Z,11.70
2017-09-23T07:03:57.504Z,11.63
2017-09-23T07:06:26.569Z,11.27
2017-09-23T07:08:54.894Z,11.00
2017-09-23T07:11:23.184Z,11.50
2017-09-23T07:13:51.533Z,11.33
2017-09-23T07:16:20.625Z,11.77
2017-09-23T07:18:48.942Z,11.37
2017-09-23T07:21:17.333Z,15.17
2017-09-23T07:23:45.633Z,12.50
2017-09-23T07:26:13.939Z,10.63
2017-09-23T07:28:42.334Z,11.60
2017-09-23T07:31:10.647Z,11.37
2017-09-23T07:33:38.965Z,10.97
2017-09-23T07:36:07.360Z,11.77
2017-09-23T07:38:35.899Z,12.30
2017-09-23T07:41:04.252Z,10.80
2017-09-23T07:43:33.029Z,10.83
2017-09-23T07:46:01.346Z,11.50
2017-09-23T07:48:29.656Z,10.30
2017-09-23T07:50:57.999Z,10.07
2017-09-23T07:53:27.068Z,11.90
2017-09-23T07:55:55.382Z,11.10
2017-09-23T07:58:23.759Z,10.60
2017-09-23T08:00:52.855Z,10.50
2017-09-23T08:03:21.264Z,10.90
2017-09-23T08:05:49.571Z,10.83
2017-09-23T08:08:17.912Z,10.80
2017-09-23T08:10:46.338Z,11.83
2017-09-23T08:13:16.266Z,10.40
2017-09-23T08:15:44.747Z,10.30
2017-09-23T08:18:13.819Z,10.77
2017-09-23T08:20:42.207Z,10.50
2017-09-23T08:23:10.530Z,12.53
2017-09-23T08:25:38.840Z,12.20
2017-09-23T08:28:07.166Z,11.80
2017-09-23T08:30:36.260Z,12.00
2017-09-23T08:33:04.587Z,11.20
2017-09-23T08:35:32.926Z,12.10
2017-09-23T08:38:01.274Z,12.70
2017-09-23T08:40:29.595Z,12.57
2017-09-23T08:42:58.730Z,11.73
2017-09-23T08:45:27.867Z,12.17
2017-09-23T08:47:56.203Z,13.03
2017-09-23T08:50:24.513Z,14.00
2017-09-23T08:52:52.814Z,13.03
2017-09-23T08:55:21.166Z,13.20
2017-09-23T08:57:49.591Z,11.63
2017-09-23T09:00:17.893Z,13.10
2017-09-23T09:02:46.196Z,13.13
2017-09-23T09:05:14.671Z,12.73
2017-09-23T09:07:43.017Z,13.30
2017-09-23T09:10:11.322Z,14.03
2017-09-23T09:12:39.763Z,14.70
2017-09-23T09:15:08.066Z,14.10
2017-09-23T09:17:36.404Z,14.70
2017-09-23T09:20:04.855Z,15.10
2017-09-23T09:22:33.166Z,15.40
2017-09-23T09:25:01.507Z,15.43
2017-09-23T09:27:29.806Z,15.07
2017-09-23T09:29:58.231Z,16.47
2017-09-23T09:32:27.313Z,16.53
2017-09-23T09:34:55.643Z,15.47
2017-09-23T09:37:23.982Z,15.93
2017-09-23T09:39:52.322Z,17.43
2017-09-23T09:42:20.737Z,15.60
2017-09-23T09:44:49.080Z,15.80
2017-09-23T09:47:17.393Z,18.00
2017-09-23T09:49:45.729Z,16.70
2017-09-23T09:52:14.020Z,15.77
2017-09-23T09:54:45.246Z,16.90
2017-09-23T09:57:13.587Z,16.43
2017-09-23T09:59:42.748Z,15.33
2017-09-23T10:02:11.077Z,15.30
2017-09-23T10:04:39.374Z,15.70
2017-09-23T10:07:07.673Z,15.67
2017-09-23T10:09:36.033Z,14.70
2017-09-23T10:12:05.109Z,15.30
2017-09-23T10:14:33.513Z,14.83
2017-09-23T10:17:01.920Z,15.23
2017-09-23T10:19:30.233Z,15.60
2017-09-23T10:21:58.982Z,17.27
2017-09-23T10:27:06.450Z,17.57
2017-09-23T10:29:34.767Z,17.80
2017-09-23T10:32:03.079Z,15.07
2017-09-23T10:34:31.417Z,15.50
2017-09-23T10:36:59.721Z,14.90
2017-09-23T10:39:28.054Z,13.67
2017-09-23T10:41:56.429Z,13.33
2017-09-23T10:44:24.744Z,12.90
2017-09-23T10:46:53.853Z,13.80
2017-09-23T10:49:22.165Z,14.50
2017-09-23T10:51:51.270Z,12.97
2017-09-23T10:54:19.568Z,13.17
2017-09-23T10:56:47.906Z,14.73
2017-09-23T10:59:16.231Z,13.90
2017-09-23T11:01:44.557Z,13.80
2017-09-23T11:04:12.882Z,15.20
2017-09-23T11:06:41.178Z,14.40
2017-09-23T11:09:09.542Z,13.40
2017-09-23T11:11:37.882Z,15.33
2017-09-23T11:14:06.190Z,13.97
2017-09-23T11:16:34.528Z,13.87
2017-09-23T11:19:02.839Z,13.37
2017-09-23T11:21:31.174Z,13.30
2017-09-23T11:23:59.469Z,13.07
2017-09-23T11:26:27.825Z,13.47
2017-09-23T11:28:57.181Z,13.77
2017-09-23T11:31:25.514Z,12.20
2017-09-23T11:33:53.906Z,13.73
2017-09-23T11:36:22.537Z,13.03
2017-09-23T11:38:50.841Z,14.17
2017-09-23T11:41:19.170Z,12.87
2017-09-23T11:43:47.474Z,13.50
2017-09-23T11:46:15.810Z,13.37
2017-09-23T11:48:44.123Z,12.70
2017-09-23T11:51:12.464Z,13.00
2017-09-23T11:53:40.777Z,11.80
2017-09-23T11:56:09.081Z,13.27
2017-09-23T11:58:37.409Z,11.97
2017-09-23T12:01:06.505Z,11.27
2017-09-23T12:03:34.970Z,12.27
2017-09-23T12:06:03.313Z,12.23
2017-09-23T12:08:32.428Z,11.90
2017-09-23T12:11:01.025Z,12.13
2017-09-23T12:13:29.345Z,12.43
2017-09-23T12:15:58.451Z,11.60
2017-09-23T12:18:26.753Z,12.60
2017-09-23T12:20:55.091Z,12.23
2017-09-23T12:23:23.406Z,12.07
2017-09-23T12:25:51.730Z,11.60
2017-09-23T12:28:20.080Z,10.40
2017-09-23T12:30:48.398Z,12.80
2017-09-23T12:33:19.012Z,10.03
2017-09-23T12:35:47.307Z,8.97
2017-09-23T12:38:15.638Z,11.40
2017-09-23T12:40:43.940Z,10.00
2017-09-23T12:43:12.256Z,11.10
2017-09-23T12:45:41.345Z,10.60
2017-09-23T12:48:09.668Z,10.57
2017-09-23T12:50:37.963Z,10.13
2017-09-23T12:53:06.311Z,10.50
2017-09-23T12:55:34.618Z,9.73
2017-09-23T12:58:02.919Z,10.00
2017-09-23T13:00:31.242Z,10.43
2017-09-23T13:02:59.652Z,10.47
2017-09-23T13:05:27.959Z,10.23
2017-09-23T13:07:56.288Z,9.83
2017-09-23T13:10:24.586Z,9.40
2017-09-23T13:12:52.908Z,10.40
2017-09-23T13:15:21.286Z,10.10
2017-09-23T13:17:49.585Z,8.50
2017-09-23T13:20:17.889Z,9.87
2017-09-23T13:22:46.235Z,9.50
2017-09-23T13:25:15.423Z,9.30
2017-09-23T13:27:43.743Z,8.83
2017-09-23T13:30:12.042Z,9.47
2017-09-23T13:32:41.130Z,9.47
2017-09-23T13:35:09.467Z,9.93
2017-09-23T13:37:38.059Z,9.07
2017-09-23T13:40:06.368Z,9.07
2017-09-23T13:42:34.709Z,7.93
2017-09-23T13:45:03.830Z,8.90
2017-09-23T13:50:11.226Z,9.63
2017-09-23T13:52:39.533Z,9.07
2017-09-23T13:55:07.870Z,9.20
2017-09-23T13:57:36.950Z,9.03
2017-09-23T14:00:05.250Z,9.10
2017-09-23T14:02:33.605Z,8.40
2017-09-23T14:05:02.707Z,9.23
2017-09-23T14:07:31.022Z,7.17
2017-09-23T14:09:59.347Z,8.80
2017-09-23T14:12:27.789Z,7.77
2017-09-23T14:14:56.089Z,7.93
2017-09-23T14:17:24.390Z,9.10
2017-09-23T14:19:52.727Z,8.83
2017-09-23T14:22:21.036Z,8.20
2017-09-23T14:24:49.353Z,6.90
2017-09-23T14:27:17.641Z,7.00
2017-09-23T14:29:45.976Z,9.07
2017-09-23T14:32:15.090Z,9.77
2017-09-23T14:34:44.262Z,8.80
2017-09-23T14:37:12.593Z,10.33
2017-09-23T14:39:40.922Z,9.30
2017-09-23T14:42:10.020Z,9.97
2017-09-23T14:44:38.324Z,10.73
2017-09-23T14:47:06.632Z,10.63
2017-09-23T14:49:35.737Z,10.43
2017-09-23T14:52:04.823Z,12.27
2017-09-23T14:54:33.158Z,10.03
2017-09-23T14:57:01.450Z,9.93
2017-09-23T14:59:30.518Z,9.50
2017-09-23T15:01:59.646Z,10.90
2017-09-23T15:04:29.449Z,9.90
2017-09-23T15:06:58.047Z,9.13
2017-09-23T15:09:27.114Z,10.00
2017-09-23T15:11:56.207Z,9.43
2017-09-23T15:14:24.503Z,8.30
2017-09-23T15:16:52.805Z,9.10
2017-09-23T15:19:21.128Z,8.83
2017-09-23T15:21:49.456Z,8.93
2017-09-23T15:24:19.294Z,8.63
2017-09-23T15:26:47.635Z,9.20
2017-09-23T15:29:15.966Z,9.30
2017-09-23T15:31:44.257Z,8.70
2017-09-23T15:34:12.569Z,8.33
2017-09-23T15:36:40.894Z,9.63
2017-09-23T15:39:09.371Z,9.10
2017-09-23T15:41:37.680Z,9.13
2017-09-23T15:44:06.024Z,9.80
2017-09-23T15:46:35.102Z,9.53
2017-09-23T15:49:03.568Z,9.87
2017-09-23T15:51:31.915Z,10.17
2017-09-23T15:54:00.265Z,10.00
2017-09-23T15:56:28.578Z,10.40
2017-09-23T15:58:56.880Z,10.60
2017-09-23T16:01:25.206Z,9.50
2017-09-23T16:03:53.536Z,10.17
2017-09-23T16:06:21.858Z,11.83
2017-09-23T16:08:50.929Z,11.17
2017-09-23T16:11:24.981Z,11.40
2017-09-23T16:13:53.692Z,10.93
2017-09-23T16:16:22.032Z,11.60
2017-09-23T16:18:51.113Z,10.90
2017-09-23T16:21:19.428Z,11.60
2017-09-23T16:23:47.756Z,11.23
2017-09-23T16:26:16.834Z,11.20
2017-09-23T16:28:45.177Z,10.80
2017-09-23T16:31:14.375Z,10.73
2017-09-23T16:33:42.686Z,11.40
2017-09-23T16:36:11.807Z,11.03
2017-09-23T16:38:40.122Z,10.20
2017-09-23T16:41:08.474Z,11.37
2017-09-23T16:43:36.806Z,10.60
2017-09-23T16:46:05.105Z,10.70
2017-09-23T16:48:33.400Z,9.90
2017-09-23T16:51:01.746Z,9.50
2017-09-23T16:53:30.093Z,9.23
2017-09-23T16:55:58.391Z,10.87
2017-09-23T16:58:26.720Z,10.23
2017-09-23T17:00:55.047Z,12.40
2017-09-23T17:03:24.133Z,12.27
2017-09-23T17:05:52.470Z,12.20
2017-09-23T17:08:21.575Z,12.37
2017-09-23T17:10:50.648Z,12.37
2017-09-23T17:13:19.421Z,11.73
2017-09-23T17:15:48.641Z,11.97
2017-09-23T17:18:17.715Z,12.60
2017-09-23T17:20:46.038Z,11.53
2017-09-23T17:23:14.347Z,13.47
2017-09-23T17:25:42.673Z,12.37
2017-09-23T17:28:11.766Z,12.20
2017-09-23T17:30:40.091Z,11.97
2017-09-23T17:33:09.200Z,13.20
2017-09-23T17:35:37.514Z,11.07
2017-09-23T17:38:06.583Z,10.77
2017-09-23T17:40:34.923Z,11.37
2017-09-23T17:43:03.260Z,10.40
2017-09-23T17:45:31.557Z,10.30
2017-09-23T17:47:59.854Z,10.60
2017-09-23T17:50:28.192Z,10.20
2017-09-23T17:52:56.582Z,10.33
2017-09-23T17:55:24.891Z,12.30
2017-09-23T17:57:53.220Z,11.40
2017-09-23T18:00:21.525Z,12.37
2017-09-23T18:02:49.850Z,12.00
2017-09-23T18:05:18.158Z,11.40
2017-09-23T18:07:47.252Z,10.20
2017-09-23T18:10:16.620Z,11.13
2017-09-23T18:12:45.736Z,10.17
2017-09-23T18:15:14.809Z,13.03
2017-09-23T18:17:43.138Z,10.80
2017-09-23T18:20:11.488Z,11.23
2017-09-23T18:22:39.795Z,11.53
2017-09-23T18:25:08.093Z,10.77
2017-09-23T18:27:36.454Z,11.27
2017-09-23T18:30:04.754Z,11.70
2017-09-23T18:32:33.061Z,11.70
2017-09-23T18:35:01.398Z,10.80
2017-09-23T18:37:29.704Z,11.10
2017-09-23T18:39:58.003Z,11.93
2017-09-23T18:42:26.333Z,11.30
2017-09-23T18:44:54.653Z,10.07
2017-09-23T18:47:23.248Z,11.70
2017-09-23T18:49:51.567Z,11.60
2017-09-23T18:52:20.019Z,11.60
2017-09-23T18:54:49.122Z,11.80
2017-09-23T18:57:18.194Z,11.47
2017-09-23T18:59:46.531Z,11.50
2017-09-23T19:02:14.837Z,11.50
2017-09-23T19:04:43.132Z,12.00
2017-09-23T19:07:11.457Z,13.10
2017-09-23T19:09:40.525Z,13.43
2017-09-23T19:12:08.886Z,11.53
2017-09-23T19:14:38.022Z,12.83
2017-09-23T19:17:06.369Z,12.27
2017-09-23T19:19:34.675Z,12.90
2017-09-23T19:22:03.016Z,12.90
2017-09-23T19:24:32.108Z,13.23
2017-09-23T19:27:00.405Z,13.00
2017-09-23T19:29:28.755Z,14.13
2017-09-23T19:31:57.831Z,15.00
2017-09-23T19:34:26.175Z,13.93
2017-09-23T19:36:55.359Z,16.27
2017-09-23T19:39:23.669Z,15.83
2017-09-23T19:41:52.007Z,16.60
2017-09-23T19:44:20.310Z,18.23
2017-09-23T19:46:48.637Z,18.47
2017-09-23T19:49:17.734Z,19.00
2017-09-23T19:51:46.038Z,17.23
2017-09-23T19:54:14.397Z,17.20
2017-09-23T19:56:42.734Z,19.07
2017-09-23T19:59:11.195Z,18.13
2017-09-23T20:01:39.534Z,19.07
2017-09-23T20:04:07.862Z,18.40
2017-09-23T20:06:36.933Z,19.00
2017-09-23T20:09:05.262Z,17.03
2017-09-23T20:11:33.568Z,19.10
2017-09-23T20:14:01.868Z,18.70
2017-09-23T20:16:30.209Z,18.70
2017-09-23T20:18:58.517Z,19.60
2017-09-23T20:21:26.830Z,19.60
2017-09-23T20:23:55.161Z,22.33
2017-09-23T20:26:23.514Z,19.20
2017-09-23T20:28:51.825Z,21.23
2017-09-23T20:31:20.209Z,20.40
2017-09-23T20:33:49.353Z,22.07
2017-09-23T20:36:17.680Z,22.60
2017-09-23T20:38:45.977Z,19.60
2017-09-23T20:41:14.281Z,22.47
2017-09-23T20:43:42.786Z,21.03
2017-09-23T20:46:11.118Z,23.50
2017-09-23T20:48:39.450Z,22.97
2017-09-23T20:51:08.544Z,21.97
2017-09-23T20:53:36.881Z,23.30
2017-09-23T20:56:05.949Z,22.50
2017-09-23T20:58:34.257Z,23.77
2017-09-23T21:01:02.600Z,23.47
2017-09-23T21:03:31.662Z,24.77
2017-09-23T21:05:59.958Z,23.30
2017-09-23T21:08:28.287Z,23.50
2017-09-23T21:10:56.751Z,26.10
2017-09-23T21:13:25.088Z,23.10
2017-09-23T21:15:53.383Z,24.87
2017-09-23T21:18:21.716Z,24.87
2017-09-23T21:20:50.057Z,24.30
2017-09-23T21:23:19.202Z,25.80
2017-09-23T21:25:47.516Z,23.20
2017-09-23T21:28:15.842Z,25.80
2017-09-23T21:30:44.141Z,24.03
2017-09-23T21:33:12.474Z,24.33
2017-09-23T21:35:40.777Z,25.87
2017-09-23T21:38:09.134Z,25.60
2017-09-23T21:40:37.445Z,25.67
2017-09-23T21:43:05.786Z,24.67
2017-09-23T21:45:34.863Z,24.70
2017-09-23T21:48:03.234Z,25.70
2017-09-23T21:50:31.553Z,25.20
2017-09-23T21:52:59.864Z,24.67
2017-09-23T21:55:28.245Z,25.70
2017-09-23T21:57:56.556Z,24.47
2017-09-23T22:00:25.000Z,26.03
2017-09-23T22:02:53.307Z,24.90
2017-09-23T22:05:21.609Z,25.63
2017-09-23T22:07:49.957Z,25.87
2017-09-23T22:10:19.061Z,25.57
2017-09-23T22:12:47.385Z,25.33
2017-09-23T22:15:15.691Z,25.43
2017-09-23T22:17:44.028Z,26.20
2017-09-23T22:20:12.336Z,25.93
2017-09-23T22:22:40.659Z,26.30
2017-09-23T22:25:09.000Z,27.67
2017-09-23T22:27:37.301Z,28.43
2017-09-23T22:30:05.606Z,26.53
2017-09-23T22:32:33.938Z,25.93
2017-09-23T22:35:02.260Z,25.80
2017-09-23T22:37:30.563Z,26.80
2017-09-23T22:39:59.034Z,26.30
2017-09-23T22:42:27.422Z,25.27
2017-09-23T22:44:55.749Z,26.50
2017-09-23T22:47:24.078Z,29.37
2017-09-23T22:49:52.379Z,28.43
2017-09-23T22:52:20.712Z,28.00
2017-09-23T22:54:49.783Z,25.57
2017-09-23T22:57:18.123Z,28.27
2017-09-23T22:59:46.446Z,28.70
2017-09-23T23:02:15.510Z,29.80
2017-09-23T23:04:43.872Z,28.00
2017-09-23T23:07:12.938Z,27.73
2017-09-23T23:09:41.269Z,27.20
2017-09-23T23:12:09.612Z,28.87
2017-09-23T23:14:37.932Z,26.57
2017-09-23T23:17:06.236Z,27.17
2017-09-23T23:19:34.565Z,29.30
2017-09-23T23:22:02.865Z,29.13
2017-09-23T23:24:31.205Z,28.17
2017-09-23T23:27:00.487Z,30.23
2017-09-23T23:29:28.787Z,30.87
2017-09-23T23:31:57.114Z,28.93
2017-09-23T23:34:25.436Z,29.30
2017-09-23T23:36:54.542Z,29.10
2017-09-23T23:39:22.837Z,31.37
2017-09-23T23:41:51.141Z,29.27
2017-09-23T23:44:19.482Z,30.40
2017-09-23T23:46:47.783Z,33.53
2017-09-23T23:49:16.080Z,32.13
2017-09-23T23:51:44.409Z,30.77
2017-09-23T23:54:12.740Z,29.73
2017-09-23T23:56:41.072Z,30.87
2017-09-23T23:59:10.137Z,31.10
